createdAt,value
2023-01-03T00:02:04.430Z,98681.25
2023-01-03T00:04:32.741Z,98680.44
2023-01-03T00:07:01.007Z,98678.10
2023-01-03T00:09:29.244Z,98683.46
2023-01-03T00:12:15.958Z,98683.23
2023-01-03T00:14:44.601Z,98685.14
2023-01-03T00:17:13.415Z,98691.85
2023-01-03T00:19:44.664Z,98691.03
2023-01-03T00:22:15.978Z,98698.87
2023-01-03T00:24:46.474Z,98697.91
2023-01-03T00:27:16.358Z,98698.50
2023-01-03T00:29:45.033Z,98697.46
2023-01-03T00:32:13.689Z,98701.58
2023-01-03T00:34:45.688Z,98700.02
2023-01-03T00:37:15.538Z,98700.52
2023-01-03T00:39:44.389Z,98704.09
2023-01-03T00:42:13.209Z,98701.05
2023-01-03T00:44:41.319Z,98703.02
2023-01-03T00:47:09.688Z,98704.67
2023-01-03T00:49:39.911Z,98705.73
2023-01-03T00:52:08.044Z,98701.90
2023-01-03T00:54:36.845Z,98700.48
2023-01-03T00:57:04.967Z,98696.25
2023-01-03T00:59:33.066Z,98694.97
2023-01-03T01:02:01.376Z,98694.92
2023-01-03T01:04:31.934Z,98694.83
2023-01-03T01:07:04.441Z,98695.09
2023-01-03T01:09:36.826Z,98695.50
2023-01-03T01:12:07.460Z,98694.38
2023-01-03T01:14:36.634Z,98691.66
2023-01-03T01:17:09.037Z,98691.88
2023-01-03T01:19:43.344Z,98692.71
2023-01-03T01:22:12.172Z,98694.30
2023-01-03T01:24:40.878Z,98685.38
2023-01-03T01:27:09.031Z,98686.27
2023-01-03T01:29:38.557Z,98686.71
2023-01-03T01:32:07.424Z,98685.04
2023-01-03T01:34:36.258Z,98683.73
2023-01-03T01:37:04.899Z,98683.77
2023-01-03T01:39:33.512Z,98682.64
2023-01-03T01:42:30.281Z,98670.14
2023-01-03T01:45:14.034Z,98671.86
2023-01-03T01:47:59.998Z,98670.73
2023-01-03T01:50:40.428Z,98671.94
2023-01-03T01:53:13.101Z,98674.88
2023-01-03T01:55:54.123Z,98677.60
2023-01-03T01:58:26.148Z,98685.22
2023-01-03T02:00:54.934Z,98690.23
2023-01-03T02:03:23.287Z,98693.12
2023-01-03T02:05:54.772Z,98691.83
2023-01-03T02:08:25.181Z,98692.27
2023-01-03T02:11:48.921Z,98688.59
2023-01-03T02:14:41.327Z,98690.36
2023-01-03T02:17:38.672Z,98690.13
2023-01-03T02:20:51.728Z,98696.62
2023-01-03T02:23:54.965Z,98697.97
2023-01-03T02:27:01.907Z,98698.91
2023-01-03T02:29:57.985Z,98691.60
2023-01-03T02:32:56.235Z,98687.46
2023-01-03T02:35:37.765Z,98688.44
2023-01-03T02:38:26.303Z,98692.89
2023-01-03T02:41:40.452Z,98695.23
2023-01-03T02:44:14.549Z,98699.88
2023-01-03T02:46:58.453Z,98704.59
2023-01-03T02:49:42.401Z,98699.30
2023-01-03T02:52:15.645Z,98702.02
2023-01-03T02:54:54.697Z,98701.70
2023-01-03T02:57:31.566Z,98702.84
2023-01-03T03:00:14.459Z,98702.96
2023-01-03T03:02:52.022Z,98699.40
2023-01-03T03:05:28.345Z,98696.07
2023-01-03T03:07:56.504Z,98696.33
2023-01-03T03:11:18.651Z,98693.69
2023-01-03T03:13:57.718Z,98693.30
2023-01-03T03:16:48.912Z,98693.25
2023-01-03T03:19:49.457Z,98694.59
2023-01-03T03:23:05.028Z,98694.39
2023-01-03T03:25:57.499Z,98698.34
2023-01-03T03:28:35.721Z,98701.43
2023-01-03T03:31:11.066Z,98703.84
2023-01-03T03:34:07.859Z,98702.91
2023-01-03T03:36:54.052Z,98706.51
2023-01-03T03:39:42.916Z,98712.66
2023-01-03T03:43:11.484Z,98712.48
2023-01-03T03:46:04.469Z,98709.70
2023-01-03T03:49:06.106Z,98707.11
2023-01-03T03:51:38.085Z,98700.91
2023-01-03T03:54:12.319Z,98696.77
2023-01-03T03:56:42.917Z,98699.53
2023-01-03T03:59:11.718Z,98701.58
2023-01-03T04:01:42.457Z,98703.67
2023-01-03T04:04:25.066Z,98703.71
2023-01-03T04:06:53.715Z,98698.79
2023-01-03T04:09:21.821Z,98696.11
2023-01-03T04:11:49.983Z,98704.52
2023-01-03T04:14:18.105Z,98704.71
2023-01-03T04:16:46.864Z,98702.69
2023-01-03T04:19:15.262Z,98708.02
2023-01-03T04:21:43.439Z,98705.78
2023-01-03T04:24:11.543Z,98707.48
2023-01-03T04:26:39.622Z,98710.41
2023-01-03T04:29:07.839Z,98712.09
2023-01-03T04:31:36.064Z,98711.59
2023-01-03T04:34:04.323Z,98715.74
2023-01-03T04:36:32.550Z,98710.95
2023-01-03T04:39:01.206Z,98712.43
2023-01-03T04:41:29.417Z,98709.66
2023-01-03T04:44:04.690Z,98712.92
2023-01-03T04:46:36.579Z,98716.52
2023-01-03T04:49:07.223Z,98717.23
2023-01-03T04:51:36.365Z,98717.64
2023-01-03T04:54:06.183Z,98722.87
2023-01-03T04:56:37.619Z,98726.89
2023-01-03T04:59:05.830Z,98730.23
2023-01-03T05:01:34.172Z,98735.04
2023-01-03T05:04:03.045Z,98734.17
2023-01-03T05:06:31.326Z,98740.90
2023-01-03T05:08:59.506Z,98741.02
2023-01-03T05:11:27.591Z,98743.64
2023-01-03T05:13:55.821Z,98741.77
2023-01-03T05:16:24.013Z,98740.62
2023-01-03T05:18:53.545Z,98741.25
2023-01-03T05:21:41.569Z,98745.73
2023-01-03T05:24:30.195Z,98747.13
2023-01-03T05:27:01.880Z,98748.90
2023-01-03T05:29:30.893Z,98749.92
2023-01-03T05:31:59.385Z,98746.06
2023-01-03T05:34:27.642Z,98747.25
2023-01-03T05:36:55.772Z,98743.18
2023-01-03T05:39:24.011Z,98744.29
2023-01-03T05:42:01.141Z,98751.01
2023-01-03T05:44:32.435Z,98752.13
2023-01-03T05:47:03.638Z,98757.12
2023-01-03T05:49:31.824Z,98759.02
2023-01-03T05:51:59.956Z,98753.66
2023-01-03T05:54:28.193Z,98755.86
2023-01-03T05:56:56.316Z,98749.94
2023-01-03T05:59:24.888Z,98748.15
2023-01-03T06:01:53.310Z,98750.32
2023-01-03T06:04:21.735Z,98749.89
2023-01-03T06:06:49.890Z,98756.00
2023-01-03T06:09:18.256Z,98755.91
2023-01-03T06:11:46.482Z,98756.19
2023-01-03T06:14:14.798Z,98753.98
2023-01-03T06:17:01.848Z,98751.55
2023-01-03T06:19:30.478Z,98750.17
2023-01-03T06:21:58.679Z,98756.09
2023-01-03T06:24:26.910Z,98755.92
2023-01-03T06:26:55.088Z,98759.89
2023-01-03T06:29:23.249Z,98764.36
2023-01-03T06:31:51.393Z,98767.41
2023-01-03T06:34:19.498Z,98773.76
2023-01-03T06:36:47.751Z,98765.11
2023-01-03T06:39:15.971Z,98768.72
2023-01-03T06:41:44.093Z,98771.14
2023-01-03T06:44:12.197Z,98777.32
2023-01-03T06:46:59.248Z,98776.75
2023-01-03T06:50:26.416Z,98782.05
2023-01-03T06:53:13.171Z,98786.15
2023-01-03T06:55:44.794Z,98787.16
2023-01-03T06:58:14.185Z,98788.54
2023-01-03T07:00:44.461Z,98789.70
2023-01-03T07:03:12.683Z,98791.98
2023-01-03T07:05:41.077Z,98796.52
2023-01-03T07:08:09.168Z,98796.91
2023-01-03T07:10:37.318Z,98798.86
2023-01-03T07:13:24.059Z,98808.33
2023-01-03T07:15:52.272Z,98805.95
2023-01-03T07:18:20.394Z,98805.11
2023-01-03T07:20:48.571Z,98810.92
2023-01-03T07:23:16.716Z,98811.63
2023-01-03T07:25:44.900Z,98811.77
2023-01-03T07:28:15.555Z,98811.77
2023-01-03T07:30:46.348Z,98811.78
2023-01-03T07:33:16.488Z,98813.07
2023-01-03T07:35:45.782Z,98808.91
2023-01-03T07:38:14.361Z,98809.34
2023-01-03T07:40:42.738Z,98812.93
2023-01-03T07:43:30.458Z,98812.59
2023-01-03T07:45:58.798Z,98808.80
2023-01-03T07:48:26.982Z,98811.44
2023-01-03T07:50:58.828Z,98813.20
2023-01-03T07:53:27.732Z,98809.88
2023-01-03T07:56:07.763Z,98814.44
2023-01-03T07:58:40.932Z,98814.41
2023-01-03T08:01:17.903Z,98806.98
2023-01-03T08:03:46.775Z,98806.55
2023-01-03T08:06:21.083Z,98810.60
2023-01-03T08:09:09.971Z,98811.34
2023-01-03T08:11:57.579Z,98814.59
2023-01-03T08:14:27.252Z,98815.55
2023-01-03T08:16:56.293Z,98810.02
2023-01-03T08:19:25.082Z,98812.41
2023-01-03T08:21:53.395Z,98819.64
2023-01-03T08:24:21.590Z,98820.27
2023-01-03T08:26:49.919Z,98811.09
2023-01-03T08:29:18.132Z,98812.06
2023-01-03T08:31:58.341Z,98818.56
2023-01-03T08:34:31.338Z,98819.07
2023-01-03T08:37:05.104Z,98813.89
2023-01-03T08:39:47.109Z,98812.42
2023-01-03T08:42:20.796Z,98815.78
2023-01-03T08:44:58.508Z,98816.16
2023-01-03T08:47:28.174Z,98813.48
2023-01-03T08:49:58.443Z,98814.77
2023-01-03T08:52:31.639Z,98815.20
2023-01-03T08:55:04.345Z,98815.63
2023-01-03T08:57:32.575Z,98812.05
2023-01-03T09:00:00.901Z,98813.01
2023-01-03T09:02:29.300Z,98815.20
2023-01-03T09:04:57.854Z,98811.98
2023-01-03T09:07:26.210Z,98814.54
2023-01-03T09:09:54.253Z,98808.48
2023-01-03T09:12:22.330Z,98804.98
2023-01-03T09:14:50.573Z,98809.41
2023-01-03T09:17:18.715Z,98804.80
2023-01-03T09:19:46.886Z,98809.58
2023-01-03T09:22:15.048Z,98809.73
2023-01-03T09:24:43.164Z,98808.29
2023-01-03T09:27:11.295Z,98797.59
2023-01-03T09:29:39.395Z,98800.23
2023-01-03T09:32:07.544Z,98796.85
2023-01-03T09:34:35.674Z,98795.33
2023-01-03T09:37:04.560Z,98793.39
2023-01-03T09:39:33.280Z,98793.11
2023-01-03T09:42:19.896Z,98793.31
2023-01-03T09:44:47.989Z,98790.56
2023-01-03T09:47:24.361Z,98787.60
2023-01-03T09:53:04.307Z,98784.21
2023-01-03T09:56:15.351Z,98785.80
2023-01-03T09:59:10.420Z,98781.89
2023-01-03T10:02:32.819Z,98777.40
2023-01-03T10:05:16.344Z,98770.30
2023-01-03T10:08:23.137Z,98768.60
2023-01-03T10:11:03.264Z,98769.54
2023-01-03T10:13:58.168Z,98769.59
2023-01-03T10:16:42.020Z,98763.12
2023-01-03T10:19:22.306Z,98755.20
2023-01-03T10:22:14.803Z,98753.83
2023-01-03T10:24:59.002Z,98754.70
2023-01-03T10:27:30.187Z,98755.09
2023-01-03T10:30:04.580Z,98754.52
2023-01-03T10:32:59.087Z,98751.95
2023-01-03T10:35:33.911Z,98747.73
2023-01-03T10:38:03.134Z,98749.41
2023-01-03T10:40:35.206Z,98748.55
2023-01-03T10:43:18.733Z,98746.10
2023-01-03T10:46:22.114Z,98747.30
2023-01-03T10:49:26.475Z,98747.48
2023-01-03T10:51:57.221Z,98746.70
2023-01-03T10:54:53.555Z,98744.05
2023-01-03T10:57:48.610Z,98737.48
2023-01-03T11:00:38.193Z,98732.11
2023-01-03T11:03:09.775Z,98725.85
2023-01-03T11:05:42.118Z,98724.16
2023-01-03T11:08:45.433Z,98722.05
2023-01-03T11:11:35.758Z,98718.02
2023-01-03T11:14:24.399Z,98713.60
2023-01-03T11:17:06.052Z,98713.66
2023-01-03T11:19:34.642Z,98718.08
2023-01-03T11:22:41.706Z,98707.50
2023-01-03T11:25:37.596Z,98699.54
2023-01-03T11:28:16.467Z,98702.95
2023-01-03T11:31:13.615Z,98698.54
2023-01-03T11:34:04.790Z,98694.48
2023-01-03T11:36:48.949Z,98698.71
2023-01-03T11:40:11.810Z,98690.82
2023-01-03T11:43:21.600Z,98683.27
2023-01-03T11:46:06.497Z,98689.03
2023-01-03T11:48:52.908Z,98684.73
2023-01-03T11:51:42.801Z,98686.27
2023-01-03T11:55:17.038Z,98682.32
2023-01-03T11:58:09.563Z,98686.33
2023-01-03T12:01:21.522Z,98683.83
2023-01-03T12:04:17.765Z,98681.47
2023-01-03T12:07:37.506Z,98683.71
2023-01-03T12:10:38.270Z,98685.77
2023-01-03T12:13:22.584Z,98689.47
2023-01-03T12:16:04.713Z,98689.05
2023-01-03T12:18:41.825Z,98682.31
2023-01-03T12:21:36.610Z,98683.64
2023-01-03T12:24:44.431Z,98686.86
2023-01-03T12:27:29.235Z,98685.56
2023-01-03T12:30:29.035Z,98686.77
2023-01-03T12:33:32.663Z,98684.44
2023-01-03T12:36:27.788Z,98684.64
2023-01-03T12:39:18.730Z,98679.23
2023-01-03T12:42:01.079Z,98670.45
2023-01-03T12:44:40.238Z,98669.10
2023-01-03T12:47:28.711Z,98663.65
2023-01-03T12:50:27.371Z,98664.13
2023-01-03T12:53:26.647Z,98662.75
2023-01-03T12:56:09.794Z,98663.54
2023-01-03T12:59:17.329Z,98664.79
2023-01-03T13:01:54.698Z,98667.77
2023-01-03T13:04:32.685Z,98677.73
2023-01-03T13:07:28.367Z,98685.11
2023-01-03T13:10:06.901Z,98685.63
2023-01-03T13:12:42.532Z,98681.36
2023-01-03T13:15:37.351Z,98686.84
2023-01-03T13:18:35.340Z,98686.45
2023-01-03T13:21:51.586Z,98684.20
2023-01-03T13:24:52.460Z,98687.66
2023-01-03T13:27:47.999Z,98693.48
2023-01-03T13:30:23.108Z,98693.26
2023-01-03T13:33:11.887Z,98703.60
2023-01-03T13:35:42.939Z,98710.66
2023-01-03T13:38:29.525Z,98707.85
2023-01-03T13:41:17.806Z,98707.53
2023-01-03T13:43:52.674Z,98711.65
2023-01-03T13:46:26.653Z,98717.77
2023-01-03T13:49:00.447Z,98712.84
2023-01-03T13:52:28.171Z,98720.18
2023-01-03T13:54:59.479Z,98722.27
2023-01-03T13:57:38.657Z,98723.34
2023-01-03T14:00:19.635Z,98721.58
2023-01-03T14:03:02.030Z,98724.27
2023-01-03T14:06:26.978Z,98724.77
2023-01-03T14:09:27.183Z,98724.94
2023-01-03T14:12:13.047Z,98724.80
2023-01-03T14:14:42.123Z,98724.30
2023-01-03T14:17:22.527Z,98724.99
2023-01-03T14:19:54.824Z,98731.60
2023-01-03T14:22:33.505Z,98731.95
2023-01-03T14:25:01.674Z,98733.70
2023-01-03T14:27:40.845Z,98733.96
2023-01-03T14:30:31.158Z,98735.23
2023-01-03T14:32:59.572Z,98733.54
2023-01-03T14:35:42.798Z,98735.52
2023-01-03T14:38:50.632Z,98735.09
2023-01-03T14:41:28.899Z,98735.77
2023-01-03T14:44:28.750Z,98739.23
2023-01-03T14:47:04.366Z,98738.89
2023-01-03T14:49:45.724Z,98738.69
2023-01-03T14:52:25.480Z,98738.50
2023-01-03T14:55:00.123Z,98740.48
2023-01-03T14:57:35.932Z,98741.98
2023-01-03T15:00:08.213Z,98741.33
2023-01-03T15:02:41.194Z,98741.56
2023-01-03T15:05:28.978Z,98745.30
2023-01-03T15:08:15.218Z,98749.25
2023-01-03T15:11:08.470Z,98751.45
2023-01-03T15:13:47.356Z,98754.35
2023-01-03T15:16:33.087Z,98759.86
2023-01-03T15:19:24.611Z,98762.98
2023-01-03T15:22:19.741Z,98762.17
2023-01-03T15:25:03.333Z,98765.34
2023-01-03T15:27:51.859Z,98762.22
2023-01-03T15:30:25.575Z,98763.13
2023-01-03T15:33:05.001Z,98764.88
2023-01-03T15:35:39.832Z,98762.01
2023-01-03T15:38:32.339Z,98761.22
2023-01-03T15:41:04.974Z,98768.75
2023-01-03T15:43:38.493Z,98771.48
2023-01-03T15:46:18.129Z,98772.69
2023-01-03T15:48:56.835Z,98772.17
2023-01-03T15:51:25.148Z,98773.95
2023-01-03T15:53:53.366Z,98774.87
2023-01-03T15:56:34.231Z,98776.08
2023-01-03T15:59:09.602Z,98772.80
2023-01-03T16:01:37.873Z,98772.59
2023-01-03T16:04:06.224Z,98777.04
2023-01-03T16:06:34.364Z,98776.63
2023-01-03T16:09:02.577Z,98775.52
2023-01-03T16:11:34.468Z,98781.30
2023-01-03T16:14:08.178Z,98781.02
2023-01-03T16:16:41.689Z,98780.83
2023-01-03T16:19:25.919Z,98780.84
2023-01-03T16:24:49.511Z,98780.86
2023-01-03T16:27:25.140Z,98781.11
2023-01-03T16:29:53.290Z,98776.02
2023-01-03T16:32:28.254Z,98783.70
2023-01-03T16:35:01.193Z,98778.93
2023-01-03T16:37:29.424Z,98783.23
2023-01-03T16:39:58.728Z,98779.20
2023-01-03T16:42:30.201Z,98780.02
2023-01-03T16:44:58.759Z,98781.82
2023-01-03T16:47:33.227Z,98785.55
2023-01-03T16:50:15.994Z,98783.77
2023-01-03T16:52:48.529Z,98786.64
2023-01-03T16:55:27.953Z,98781.42
2023-01-03T16:57:57.562Z,98779.63
2023-01-03T17:00:33.436Z,98785.67
2023-01-03T17:03:03.084Z,98785.84
2023-01-03T17:05:37.626Z,98787.61
2023-01-03T17:08:44.607Z,98794.13
2023-01-03T17:11:12.739Z,98794.10
2023-01-03T17:13:42.882Z,98791.31
2023-01-03T17:16:24.834Z,98795.57
2023-01-03T17:18:54.008Z,98793.88
2023-01-03T17:21:28.127Z,98796.19
2023-01-03T17:24:12.383Z,98794.17
2023-01-03T17:26:40.617Z,98792.55
2023-01-03T17:29:17.371Z,98791.65
2023-01-03T17:31:45.407Z,98787.98
2023-01-03T17:34:26.827Z,98786.38
2023-01-03T17:36:56.555Z,98781.86
2023-01-03T17:39:26.217Z,98784.29
2023-01-03T17:42:12.684Z,98784.12
2023-01-03T17:44:42.912Z,98783.29
2023-01-03T17:47:35.818Z,98785.41
2023-01-03T17:50:04.494Z,98784.98
2023-01-03T17:52:35.650Z,98785.09
2023-01-03T17:55:16.479Z,98785.20
2023-01-03T17:57:44.735Z,98790.62
2023-01-03T18:00:24.933Z,98796.61
2023-01-03T18:02:55.633Z,98795.84
2023-01-03T18:05:28.824Z,98798.73
2023-01-03T18:08:01.668Z,98798.61
2023-01-03T18:10:46.894Z,98797.36
2023-01-03T18:13:33.763Z,98796.14
2023-01-03T18:16:02.570Z,98800.88
2023-01-03T18:18:31.470Z,98802.73
2023-01-03T18:20:59.744Z,98803.50
2023-01-03T18:23:36.799Z,98797.69
2023-01-03T18:26:08.564Z,98800.49
2023-01-03T18:28:36.770Z,98794.16
2023-01-03T18:31:07.262Z,98797.73
2023-01-03T18:33:35.548Z,98796.98
2023-01-03T18:36:04.396Z,98794.88
2023-01-03T18:38:39.472Z,98796.23
2023-01-03T18:41:17.986Z,98796.95
2023-01-03T18:43:46.142Z,98803.00
2023-01-03T18:46:16.203Z,98805.89
2023-01-03T18:48:44.479Z,98807.23
2023-01-03T18:51:19.090Z,98813.26
2023-01-03T18:53:54.214Z,98812.20
2023-01-03T18:56:36.980Z,98809.40
2023-01-03T18:59:40.698Z,98808.46
2023-01-03T19:02:17.696Z,98810.15
2023-01-03T19:04:51.259Z,98808.44
2023-01-03T19:07:42.324Z,98810.19
2023-01-03T19:10:35.953Z,98809.66
2023-01-03T19:13:05.876Z,98812.81
2023-01-03T19:15:34.036Z,98811.80
2023-01-03T19:18:03.839Z,98814.52
2023-01-03T19:20:32.101Z,98819.98
2023-01-03T19:23:00.280Z,98821.27
2023-01-03T19:25:31.008Z,98820.16
2023-01-03T19:28:04.883Z,98821.61
2023-01-03T19:30:39.969Z,98817.08
2023-01-03T19:33:16.280Z,98819.17
2023-01-03T19:35:44.493Z,98819.38
2023-01-03T19:38:13.482Z,98819.50
2023-01-03T19:40:45.570Z,98816.71
2023-01-03T19:43:23.180Z,98821.13
2023-01-03T19:45:51.304Z,98822.77
2023-01-03T19:48:24.438Z,98822.83
2023-01-03T19:50:55.567Z,98825.23
2023-01-03T19:53:23.757Z,98828.08
2023-01-03T19:55:53.582Z,98829.15
2023-01-03T19:58:27.592Z,98829.81
2023-01-03T20:00:57.327Z,98822.14
2023-01-03T20:03:39.475Z,98818.65
2023-01-03T20:06:18.679Z,98820.55
2023-01-03T20:08:47.477Z,98827.13
2023-01-03T20:11:20.093Z,98826.83
2023-01-03T20:13:49.685Z,98825.29
2023-01-03T20:16:17.856Z,98825.21
2023-01-03T20:18:48.209Z,98827.72
2023-01-03T20:21:32.767Z,98832.35
2023-01-03T20:24:02.317Z,98829.87
2023-01-03T20:26:33.611Z,98830.63
2023-01-03T20:29:02.173Z,98830.87
2023-01-03T20:31:30.337Z,98828.18
2023-01-03T20:33:59.815Z,98822.20
2023-01-03T20:36:36.299Z,98820.60
2023-01-03T20:39:04.634Z,98812.60
2023-01-03T20:41:38.641Z,98813.63
2023-01-03T20:44:09.612Z,98813.54
2023-01-03T20:46:39.127Z,98817.82
2023-01-03T20:49:22.448Z,98813.27
2023-01-03T20:51:51.486Z,98815.13
2023-01-03T20:54:20.639Z,98810.90
2023-01-03T20:56:48.805Z,98811.40
2023-01-03T20:59:19.789Z,98807.77
2023-01-03T21:01:49.155Z,98806.08
2023-01-03T21:04:17.681Z,98803.73
2023-01-03T21:06:46.624Z,98805.65
2023-01-03T21:09:14.869Z,98803.58
2023-01-03T21:11:43.021Z,98801.36
2023-01-03T21:14:11.204Z,98798.38
2023-01-03T21:16:44.361Z,98800.95
2023-01-03T21:19:20.358Z,98797.14
2023-01-03T21:21:54.581Z,98795.55
2023-01-03T21:24:25.264Z,98788.61
2023-01-03T21:26:53.397Z,98785.50
2023-01-03T21:29:22.180Z,98785.71
2023-01-03T21:31:50.454Z,98789.08
2023-01-03T21:34:21.332Z,98790.72
2023-01-03T21:36:49.849Z,98791.65
2023-01-03T21:39:18.115Z,98795.66
2023-01-03T21:42:05.141Z,98802.19
2023-01-03T21:44:33.325Z,98809.60
2023-01-03T21:47:01.449Z,98812.09
2023-01-03T21:49:29.756Z,98813.42
2023-01-03T21:51:57.863Z,98815.14
2023-01-03T21:54:26.181Z,98812.30
2023-01-03T21:56:54.280Z,98808.15
2023-01-03T21:59:22.593Z,98800.34
2023-01-03T22:02:09.563Z,98799.54
2023-01-03T22:04:37.771Z,98798.75
2023-01-03T22:07:05.966Z,98796.40
2023-01-03T22:09:52.939Z,98800.61
2023-01-03T22:12:21.943Z,98790.08
2023-01-03T22:14:50.085Z,98790.45
2023-01-03T22:17:18.161Z,98796.88
2023-01-03T22:19:46.272Z,98793.11
2023-01-03T22:22:14.430Z,98793.70
2023-01-03T22:24:42.772Z,98796.36
2023-01-03T22:27:10.942Z,98806.14
2023-01-03T22:29:39.154Z,98806.41
2023-01-03T22:32:07.380Z,98810.84
2023-01-03T22:34:37.955Z,98810.27
2023-01-03T22:37:06.197Z,98810.77
2023-01-03T22:39:34.394Z,98808.86
2023-01-03T22:42:02.560Z,98809.88
2023-01-03T22:44:30.742Z,98813.30
2023-01-03T22:46:58.978Z,98817.56
2023-01-03T22:49:27.760Z,98816.96
2023-01-03T22:51:55.854Z,98815.66
2023-01-03T22:54:24.194Z,98813.64
2023-01-03T22:56:55.530Z,98809.89
2023-01-03T22:59:24.739Z,98807.20
2023-01-03T23:01:53.099Z,98806.06
2023-01-03T23:04:22.957Z,98801.85
2023-01-03T23:06:51.293Z,98799.77
2023-01-03T23:09:20.967Z,98802.85
2023-01-03T23:12:08.323Z,98803.05
2023-01-03T23:14:36.586Z,98794.21
2023-01-03T23:17:23.435Z,98800.47
2023-01-03T23:19:51.747Z,98798.21
2023-01-03T23:22:19.971Z,98799.00
2023-01-03T23:24:48.155Z,98801.33
2023-01-03T23:27:16.417Z,98800.73
2023-01-03T23:29:44.663Z,98798.56
2023-01-03T23:32:12.818Z,98796.98
2023-01-03T23:34:41.026Z,98793.38
2023-01-03T23:37:09.179Z,98792.17
2023-01-03T23:39:37.440Z,98787.83
2023-01-03T23:42:05.683Z,98786.98
2023-01-03T23:44:33.858Z,98786.50
2023-01-03T23:47:06.262Z,98786.20
2023-01-03T23:49:37.710Z,98784.83
2023-01-03T23:52:05.900Z,98783.26
2023-01-03T23:54:35.183Z,98787.39
2023-01-03T23:57:05.015Z,98785.27
2023-01-03T23:59:33.309Z,98782.83
